sensor_id;sensor_type;location;lat;lon;timestamp;temperature;humidity
29817;DHT22;16805;52.956;5.906;2022-08-19T00:00:08;17.80;99.90
29817;DHT22;16805;52.956;5.906;2022-08-19T00:02:34;17.90;99.90
29817;DHT22;16805;52.956;5.906;2022-08-19T00:05:03;17.90;99.90
29817;DHT22;16805;52.956;5.906;2022-08-19T00:07:29;17.90;99.90
29817;DHT22;16805;52.956;5.906;2022-08-19T00:09:55;18.00;99.90
29817;DHT22;16805;52.956;5.906;2022-08-19T00:12:21;18.00;99.90
29817;DHT22;16805;52.956;5.906;2022-08-19T00:14:47;17.90;99.90
29817;DHT22;16805;52.956;5.906;2022-08-19T00:17:12;17.90;99.90
29817;DHT22;16805;52.956;5.906;2022-08-19T00:19:38;17.90;99.90
29817;DHT22;16805;52.956;5.906;2022-08-19T00:22:04;17.90;99.90
29817;DHT22;16805;52.956;5.906;2022-08-19T00:24:31;17.90;99.90
29817;DHT22;16805;52.956;5.906;2022-08-19T00:26:57;17.90;99.90
29817;DHT22;16805;52.956;5.906;2022-08-19T00:29:24;17.90;99.90
29817;DHT22;16805;52.956;5.906;2022-08-19T00:31:51;17.90;99.90
29817;DHT22;16805;52.956;5.906;2022-08-19T00:34:20;17.90;99.90
29817;DHT22;16805;52.956;5.906;2022-08-19T00:36:46;18.00;99.90
29817;DHT22;16805;52.956;5.906;2022-08-19T00:39:13;18.00;99.90
29817;DHT22;16805;52.956;5.906;2022-08-19T00:41:41;18.00;99.90
29817;DHT22;16805;52.956;5.906;2022-08-19T00:44:12;18.10;99.90
29817;DHT22;16805;52.956;5.906;2022-08-19T00:46:41;18.10;99.90
29817;DHT22;16805;52.956;5.906;2022-08-19T00:49:11;18.10;99.90
29817;DHT22;16805;52.956;5.906;2022-08-19T00:51:41;18.10;99.90
29817;DHT22;16805;52.956;5.906;2022-08-19T00:54:07;18.10;99.90
29817;DHT22;16805;52.956;5.906;2022-08-19T00:56:35;18.10;99.90
29817;DHT22;16805;52.956;5.906;2022-08-19T00:59:01;18.10;99.90
29817;DHT22;16805;52.956;5.906;2022-08-19T01:01:27;18.10;99.90
29817;DHT22;16805;52.956;5.906;2022-08-19T01:03:53;18.00;99.90
29817;DHT22;16805;52.956;5.906;2022-08-19T01:06:19;18.00;99.90
29817;DHT22;16805;52.956;5.906;2022-08-19T01:08:44;18.00;99.90
29817;DHT22;16805;52.956;5.906;2022-08-19T01:11:10;17.90;99.90
29817;DHT22;16805;52.956;5.906;2022-08-19T01:13:36;17.90;99.90
29817;DHT22;16805;52.956;5.906;2022-08-19T01:16:08;17.80;99.90
29817;DHT22;16805;52.956;5.906;2022-08-19T01:18:39;17.70;99.90
29817;DHT22;16805;52.956;5.906;2022-08-19T01:21:11;17.70;99.90
29817;DHT22;16805;52.956;5.906;2022-08-19T01:23:42;17.70;99.90
29817;DHT22;16805;52.956;5.906;2022-08-19T01:26:11;17.60;99.90
29817;DHT22;16805;52.956;5.906;2022-08-19T01:28:37;17.60;99.90
29817;DHT22;16805;52.956;5.906;2022-08-19T01:31:04;17.60;99.90
29817;DHT22;16805;52.956;5.906;2022-08-19T01:33:30;17.50;99.90
29817;DHT22;16805;52.956;5.906;2022-08-19T01:36:38;17.50;99.90
29817;DHT22;16805;52.956;5.906;2022-08-19T01:39:06;17.40;99.90
29817;DHT22;16805;52.956;5.906;2022-08-19T01:41:32;17.40;99.90
29817;DHT22;16805;52.956;5.906;2022-08-19T01:43:58;17.40;99.90
29817;DHT22;16805;52.956;5.906;2022-08-19T01:46:24;17.40;99.90
29817;DHT22;16805;52.956;5.906;2022-08-19T01:48:50;17.40;99.90
29817;DHT22;16805;52.956;5.906;2022-08-19T01:51:15;17.40;99.90
29817;DHT22;16805;52.956;5.906;2022-08-19T01:53:41;17.40;99.90
29817;DHT22;16805;52.956;5.906;2022-08-19T01:56:07;17.30;99.90
29817;DHT22;16805;52.956;5.906;2022-08-19T01:58:41;17.30;99.90
29817;DHT22;16805;52.956;5.906;2022-08-19T02:01:07;17.30;99.90
29817;DHT22;16805;52.956;5.906;2022-08-19T02:03:33;17.30;99.90
29817;DHT22;16805;52.956;5.906;2022-08-19T02:06:01;17.30;99.90
29817;DHT22;16805;52.956;5.906;2022-08-19T02:08:29;17.30;99.90
29817;DHT22;16805;52.956;5.906;2022-08-19T02:10:55;17.30;99.90
29817;DHT22;16805;52.956;5.906;2022-08-19T02:13:23;17.40;99.90
29817;DHT22;16805;52.956;5.906;2022-08-19T02:15:49;17.40;99.90
29817;DHT22;16805;52.956;5.906;2022-08-19T02:18:14;17.40;99.90
29817;DHT22;16805;52.956;5.906;2022-08-19T02:20:41;17.30;99.90
29817;DHT22;16805;52.956;5.906;2022-08-19T02:23:07;17.20;99.90
29817;DHT22;16805;52.956;5.906;2022-08-19T02:25:33;17.20;99.90
29817;DHT22;16805;52.956;5.906;2022-08-19T02:27:59;17.10;99.90
29817;DHT22;16805;52.956;5.906;2022-08-19T02:30:25;17.00;99.90
29817;DHT22;16805;52.956;5.906;2022-08-19T02:32:51;17.00;99.90
29817;DHT22;16805;52.956;5.906;2022-08-19T02:35:18;17.00;99.90
29817;DHT22;16805;52.956;5.906;2022-08-19T02:37:43;17.00;99.90
29817;DHT22;16805;52.956;5.906;2022-08-19T02:40:29;16.90;99.90
29817;DHT22;16805;52.956;5.906;2022-08-19T02:42:55;17.00;99.90
29817;DHT22;16805;52.956;5.906;2022-08-19T02:45:21;16.90;99.90
29817;DHT22;16805;52.956;5.906;2022-08-19T02:47:48;16.90;99.90
29817;DHT22;16805;52.956;5.906;2022-08-19T02:50:13;16.80;99.90
29817;DHT22;16805;52.956;5.906;2022-08-19T02:52:40;16.80;99.90
29817;DHT22;16805;52.956;5.906;2022-08-19T02:55:06;16.80;99.90
29817;DHT22;16805;52.956;5.906;2022-08-19T02:57:32;16.80;99.90
29817;DHT22;16805;52.956;5.906;2022-08-19T02:59:58;16.90;99.90
29817;DHT22;16805;52.956;5.906;2022-08-19T03:02:23;16.90;99.90
29817;DHT22;16805;52.956;5.906;2022-08-19T03:04:49;16.90;99.90
29817;DHT22;16805;52.956;5.906;2022-08-19T03:07:17;16.90;99.90
29817;DHT22;16805;52.956;5.906;2022-08-19T03:09:44;17.00;99.90
29817;DHT22;16805;52.956;5.906;2022-08-19T03:12:28;17.00;99.90
29817;DHT22;16805;52.956;5.906;2022-08-19T03:14:54;17.00;99.90
29817;DHT22;16805;52.956;5.906;2022-08-19T03:17:19;17.10;99.90
29817;DHT22;16805;52.956;5.906;2022-08-19T03:19:45;17.10;99.90
29817;DHT22;16805;52.956;5.906;2022-08-19T03:22:11;17.00;99.90
29817;DHT22;16805;52.956;5.906;2022-08-19T03:24:37;17.10;99.90
29817;DHT22;16805;52.956;5.906;2022-08-19T03:27:03;17.10;99.90
29817;DHT22;16805;52.956;5.906;2022-08-19T03:29:31;17.10;99.90
29817;DHT22;16805;52.956;5.906;2022-08-19T03:31:59;17.10;99.90
29817;DHT22;16805;52.956;5.906;2022-08-19T03:34:28;17.00;99.90
29817;DHT22;16805;52.956;5.906;2022-08-19T03:36:56;17.00;99.90
29817;DHT22;16805;52.956;5.906;2022-08-19T03:39:23;16.90;99.90
29817;DHT22;16805;52.956;5.906;2022-08-19T03:41:51;16.90;99.90
29817;DHT22;16805;52.956;5.906;2022-08-19T03:44:21;16.90;99.90
29817;DHT22;16805;52.956;5.906;2022-08-19T03:46:54;17.00;99.90
29817;DHT22;16805;52.956;5.906;2022-08-19T03:49:25;17.00;99.90
29817;DHT22;16805;52.956;5.906;2022-08-19T03:51:53;17.10;99.90
29817;DHT22;16805;52.956;5.906;2022-08-19T03:54:21;17.10;99.90
29817;DHT22;16805;52.956;5.906;2022-08-19T03:56:50;17.10;99.90
29817;DHT22;16805;52.956;5.906;2022-08-19T03:59:23;17.10;99.90
29817;DHT22;16805;52.956;5.906;2022-08-19T04:01:50;17.10;99.90
29817;DHT22;16805;52.956;5.906;2022-08-19T04:04:16;17.10;99.90
29817;DHT22;16805;52.956;5.906;2022-08-19T04:06:43;17.00;99.90
29817;DHT22;16805;52.956;5.906;2022-08-19T04:09:10;17.00;99.90
29817;DHT22;16805;52.956;5.906;2022-08-19T04:11:42;17.00;99.90
29817;DHT22;16805;52.956;5.906;2022-08-19T04:14:14;17.00;99.90
29817;DHT22;16805;52.956;5.906;2022-08-19T04:16:40;17.10;99.90
29817;DHT22;16805;52.956;5.906;2022-08-19T04:19:06;17.10;99.90
29817;DHT22;16805;52.956;5.906;2022-08-19T04:21:33;17.10;99.90
29817;DHT22;16805;52.956;5.906;2022-08-19T04:23:59;17.20;99.90
29817;DHT22;16805;52.956;5.906;2022-08-19T04:26:33;17.20;99.90
29817;DHT22;16805;52.956;5.906;2022-08-19T04:29:01;17.20;99.90
29817;DHT22;16805;52.956;5.906;2022-08-19T04:31:30;17.20;99.90
29817;DHT22;16805;52.956;5.906;2022-08-19T04:33:57;17.20;99.90
29817;DHT22;16805;52.956;5.906;2022-08-19T04:36:29;17.20;99.90
29817;DHT22;16805;52.956;5.906;2022-08-19T04:39:05;17.20;99.90
29817;DHT22;16805;52.956;5.906;2022-08-19T04:41:30;17.20;99.90
29817;DHT22;16805;52.956;5.906;2022-08-19T04:44:15;17.10;99.90
29817;DHT22;16805;52.956;5.906;2022-08-19T04:46:44;17.10;99.90
29817;DHT22;16805;52.956;5.906;2022-08-19T04:49:09;17.10;99.90
29817;DHT22;16805;52.956;5.906;2022-08-19T04:51:39;17.10;99.90
29817;DHT22;16805;52.956;5.906;2022-08-19T04:54:05;17.10;99.90
29817;DHT22;16805;52.956;5.906;2022-08-19T04:56:30;17.10;99.90
29817;DHT22;16805;52.956;5.906;2022-08-19T04:58:57;17.10;99.90
29817;DHT22;16805;52.956;5.906;2022-08-19T05:01:29;17.00;99.90
29817;DHT22;16805;52.956;5.906;2022-08-19T05:03:56;17.00;99.90
29817;DHT22;16805;52.956;5.906;2022-08-19T05:06:41;17.00;99.90
29817;DHT22;16805;52.956;5.906;2022-08-19T05:09:08;17.00;99.90
29817;DHT22;16805;52.956;5.906;2022-08-19T05:11:36;17.20;99.90
29817;DHT22;16805;52.956;5.906;2022-08-19T05:14:08;17.20;99.90
29817;DHT22;16805;52.956;5.906;2022-08-19T05:16:34;17.30;99.90
29817;DHT22;16805;52.956;5.906;2022-08-19T05:19:00;17.40;99.90
29817;DHT22;16805;52.956;5.906;2022-08-19T05:21:44;17.50;99.90
29817;DHT22;16805;52.956;5.906;2022-08-19T05:24:29;17.70;99.90
29817;DHT22;16805;52.956;5.906;2022-08-19T05:26:56;17.70;99.90
29817;DHT22;16805;52.956;5.906;2022-08-19T05:29:24;17.80;99.90
29817;DHT22;16805;52.956;5.906;2022-08-19T05:31:52;17.90;99.90
29817;DHT22;16805;52.956;5.906;2022-08-19T05:34:19;17.90;99.90
29817;DHT22;16805;52.956;5.906;2022-08-19T05:36:48;17.90;99.90
29817;DHT22;16805;52.956;5.906;2022-08-19T05:39:17;18.00;99.90
29817;DHT22;16805;52.956;5.906;2022-08-19T05:41:44;18.10;99.90
29817;DHT22;16805;52.956;5.906;2022-08-19T05:44:12;18.10;99.90
29817;DHT22;16805;52.956;5.906;2022-08-19T05:46:38;18.20;99.90
29817;DHT22;16805;52.956;5.906;2022-08-19T05:49:08;18.30;99.90
29817;DHT22;16805;52.956;5.906;2022-08-19T05:51:35;18.40;99.90
29817;DHT22;16805;52.956;5.906;2022-08-19T05:54:03;18.50;99.90
29817;DHT22;16805;52.956;5.906;2022-08-19T05:56:29;18.60;99.90
29817;DHT22;16805;52.956;5.906;2022-08-19T05:59:02;18.70;99.90
29817;DHT22;16805;52.956;5.906;2022-08-19T06:01:28;18.80;99.90
29817;DHT22;16805;52.956;5.906;2022-08-19T06:03:53;19.00;99.90
29817;DHT22;16805;52.956;5.906;2022-08-19T06:06:21;19.10;99.90
29817;DHT22;16805;52.956;5.906;2022-08-19T06:08:47;19.20;99.90
29817;DHT22;16805;52.956;5.906;2022-08-19T06:11:52;19.20;99.90
29817;DHT22;16805;52.956;5.906;2022-08-19T06:14:16;19.40;99.90
29817;DHT22;16805;52.956;5.906;2022-08-19T06:16:43;19.50;99.90
29817;DHT22;16805;52.956;5.906;2022-08-19T06:19:29;19.60;99.90
29817;DHT22;16805;52.956;5.906;2022-08-19T06:21:56;19.80;99.90
29817;DHT22;16805;52.956;5.906;2022-08-19T06:24:24;19.80;99.90
29817;DHT22;16805;52.956;5.906;2022-08-19T06:26:52;19.90;99.90
29817;DHT22;16805;52.956;5.906;2022-08-19T06:29:21;20.00;99.90
29817;DHT22;16805;52.956;5.906;2022-08-19T06:31:49;20.20;99.90
29817;DHT22;16805;52.956;5.906;2022-08-19T06:34:16;20.30;99.90
29817;DHT22;16805;52.956;5.906;2022-08-19T06:36:44;20.40;99.90
29817;DHT22;16805;52.956;5.906;2022-08-19T06:39:13;20.50;99.90
29817;DHT22;16805;52.956;5.906;2022-08-19T06:41:42;20.60;99.90
29817;DHT22;16805;52.956;5.906;2022-08-19T06:44:08;20.70;99.90
29817;DHT22;16805;52.956;5.906;2022-08-19T06:46:35;20.90;99.90
29817;DHT22;16805;52.956;5.906;2022-08-19T06:49:01;21.00;99.90
29817;DHT22;16805;52.956;5.906;2022-08-19T06:51:27;21.10;99.90
29817;DHT22;16805;52.956;5.906;2022-08-19T06:53:54;21.30;99.90
29817;DHT22;16805;52.956;5.906;2022-08-19T06:56:30;21.50;99.90
29817;DHT22;16805;52.956;5.906;2022-08-19T06:59:07;21.70;99.90
29817;DHT22;16805;52.956;5.906;2022-08-19T07:01:42;21.90;99.90
29817;DHT22;16805;52.956;5.906;2022-08-19T07:04:11;22.20;99.90
29817;DHT22;16805;52.956;5.906;2022-08-19T07:06:37;22.40;99.90
29817;DHT22;16805;52.956;5.906;2022-08-19T07:09:07;22.50;99.90
29817;DHT22;16805;52.956;5.906;2022-08-19T07:11:33;22.70;99.90
29817;DHT22;16805;52.956;5.906;2022-08-19T07:13:59;22.90;99.90
29817;DHT22;16805;52.956;5.906;2022-08-19T07:16:25;23.00;99.90
29817;DHT22;16805;52.956;5.906;2022-08-19T07:18:53;23.10;99.90
29817;DHT22;16805;52.956;5.906;2022-08-19T07:21:25;23.20;99.90
29817;DHT22;16805;52.956;5.906;2022-08-19T07:23:53;23.30;99.90
29817;DHT22;16805;52.956;5.906;2022-08-19T07:26:25;23.40;99.90
29817;DHT22;16805;52.956;5.906;2022-08-19T07:28:51;23.40;99.90
29817;DHT22;16805;52.956;5.906;2022-08-19T07:31:20;23.40;99.90
29817;DHT22;16805;52.956;5.906;2022-08-19T07:33:50;23.50;99.90
29817;DHT22;16805;52.956;5.906;2022-08-19T07:36:20;23.70;99.90
29817;DHT22;16805;52.956;5.906;2022-08-19T07:38:47;23.80;99.90
29817;DHT22;16805;52.956;5.906;2022-08-19T07:41:16;23.90;99.90
29817;DHT22;16805;52.956;5.906;2022-08-19T07:43:42;24.10;99.90
29817;DHT22;16805;52.956;5.906;2022-08-19T07:46:09;24.20;99.90
29817;DHT22;16805;52.956;5.906;2022-08-19T07:48:35;24.40;99.90
29817;DHT22;16805;52.956;5.906;2022-08-19T07:51:04;24.60;99.90
29817;DHT22;16805;52.956;5.906;2022-08-19T07:53:31;24.80;99.90
29817;DHT22;16805;52.956;5.906;2022-08-19T07:55:58;24.90;99.90
29817;DHT22;16805;52.956;5.906;2022-08-19T07:58:27;25.10;99.90
29817;DHT22;16805;52.956;5.906;2022-08-19T08:00:53;25.30;99.90
29817;DHT22;16805;52.956;5.906;2022-08-19T08:03:20;25.40;99.90
29817;DHT22;16805;52.956;5.906;2022-08-19T08:05:46;25.50;99.90
29817;DHT22;16805;52.956;5.906;2022-08-19T08:08:31;25.60;99.90
29817;DHT22;16805;52.956;5.906;2022-08-19T08:10:57;25.70;99.90
29817;DHT22;16805;52.956;5.906;2022-08-19T08:13:23;25.70;99.90
29817;DHT22;16805;52.956;5.906;2022-08-19T08:15:48;25.80;99.90
29817;DHT22;16805;52.956;5.906;2022-08-19T08:18:15;25.90;99.90
29817;DHT22;16805;52.956;5.906;2022-08-19T08:20:40;25.90;99.90
29817;DHT22;16805;52.956;5.906;2022-08-19T08:23:06;25.90;99.90
29817;DHT22;16805;52.956;5.906;2022-08-19T08:25:52;26.00;99.90
29817;DHT22;16805;52.956;5.906;2022-08-19T08:28:18;26.00;99.90
29817;DHT22;16805;52.956;5.906;2022-08-19T08:30:46;26.10;99.90
29817;DHT22;16805;52.956;5.906;2022-08-19T08:33:16;26.00;99.90
29817;DHT22;16805;52.956;5.906;2022-08-19T08:35:42;26.00;99.90
29817;DHT22;16805;52.956;5.906;2022-08-19T08:38:08;25.90;99.90
29817;DHT22;16805;52.956;5.906;2022-08-19T08:40:49;25.90;99.90
29817;DHT22;16805;52.956;5.906;2022-08-19T08:43:34;25.80;99.90
29817;DHT22;16805;52.956;5.906;2022-08-19T08:46:04;25.80;99.90
29817;DHT22;16805;52.956;5.906;2022-08-19T08:48:41;25.80;99.90
29817;DHT22;16805;52.956;5.906;2022-08-19T08:51:14;25.80;99.90
29817;DHT22;16805;52.956;5.906;2022-08-19T08:53:42;26.00;99.90
29817;DHT22;16805;52.956;5.906;2022-08-19T08:56:11;26.10;99.90
29817;DHT22;16805;52.956;5.906;2022-08-19T08:59:04;26.10;99.90
29817;DHT22;16805;52.956;5.906;2022-08-19T09:01:33;26.20;99.90
29817;DHT22;16805;52.956;5.906;2022-08-19T09:03:59;26.30;99.90
29817;DHT22;16805;52.956;5.906;2022-08-19T09:06:44;26.30;99.90
29817;DHT22;16805;52.956;5.906;2022-08-19T09:15:00;26.40;99.90
29817;DHT22;16805;52.956;5.906;2022-08-19T09:17:29;26.40;99.90
29817;DHT22;16805;52.956;5.906;2022-08-19T09:22:36;26.30;99.90
29817;DHT22;16805;52.956;5.906;2022-08-19T09:25:03;26.20;99.90
29817;DHT22;16805;52.956;5.906;2022-08-19T09:27:30;26.20;99.90
29817;DHT22;16805;52.956;5.906;2022-08-19T09:29:57;26.30;99.90
29817;DHT22;16805;52.956;5.906;2022-08-19T09:32:23;26.30;99.90
29817;DHT22;16805;52.956;5.906;2022-08-19T09:34:49;26.40;99.90
29817;DHT22;16805;52.956;5.906;2022-08-19T09:37:15;26.40;99.90
29817;DHT22;16805;52.956;5.906;2022-08-19T09:39:41;26.50;99.90
29817;DHT22;16805;52.956;5.906;2022-08-19T09:42:08;26.70;99.90
29817;DHT22;16805;52.956;5.906;2022-08-19T09:44:39;26.80;99.90
29817;DHT22;16805;52.956;5.906;2022-08-19T09:47:05;26.90;99.90
29817;DHT22;16805;52.956;5.906;2022-08-19T09:49:32;26.90;99.90
29817;DHT22;16805;52.956;5.906;2022-08-19T09:51:58;27.00;99.90
29817;DHT22;16805;52.956;5.906;2022-08-19T09:54:24;27.00;99.90
29817;DHT22;16805;52.956;5.906;2022-08-19T09:56:51;27.10;99.90
29817;DHT22;16805;52.956;5.906;2022-08-19T09:59:17;27.20;99.90
29817;DHT22;16805;52.956;5.906;2022-08-19T10:01:43;27.30;99.90
29817;DHT22;16805;52.956;5.906;2022-08-19T10:04:08;27.30;99.90
29817;DHT22;16805;52.956;5.906;2022-08-19T10:06:37;27.50;99.90
29817;DHT22;16805;52.956;5.906;2022-08-19T10:09:03;27.60;99.90
29817;DHT22;16805;52.956;5.906;2022-08-19T10:11:32;27.70;99.90
29817;DHT22;16805;52.956;5.906;2022-08-19T10:13:58;27.70;99.90
29817;DHT22;16805;52.956;5.906;2022-08-19T10:16:25;27.80;99.90
29817;DHT22;16805;52.956;5.906;2022-08-19T10:18:51;27.70;99.90
29817;DHT22;16805;52.956;5.906;2022-08-19T10:21:36;27.80;99.90
29817;DHT22;16805;52.956;5.906;2022-08-19T10:24:03;27.80;99.90
29817;DHT22;16805;52.956;5.906;2022-08-19T10:26:39;27.80;99.90
29817;DHT22;16805;52.956;5.906;2022-08-19T10:29:07;27.80;99.90
29817;DHT22;16805;52.956;5.906;2022-08-19T10:31:34;27.90;99.90
29817;DHT22;16805;52.956;5.906;2022-08-19T10:34:00;28.00;99.90
29817;DHT22;16805;52.956;5.906;2022-08-19T10:36:31;28.00;99.90
29817;DHT22;16805;52.956;5.906;2022-08-19T10:39:00;28.10;99.90
29817;DHT22;16805;52.956;5.906;2022-08-19T10:41:30;28.10;99.90
29817;DHT22;16805;52.956;5.906;2022-08-19T10:43:59;28.10;99.90
29817;DHT22;16805;52.956;5.906;2022-08-19T10:46:26;28.10;99.90
29817;DHT22;16805;52.956;5.906;2022-08-19T10:48:53;28.10;99.90
29817;DHT22;16805;52.956;5.906;2022-08-19T10:51:20;28.20;99.90
29817;DHT22;16805;52.956;5.906;2022-08-19T10:54:05;28.10;99.90
29817;DHT22;16805;52.956;5.906;2022-08-19T10:56:32;28.10;99.90
29817;DHT22;16805;52.956;5.906;2022-08-19T10:59:27;28.10;99.90
29817;DHT22;16805;52.956;5.906;2022-08-19T11:01:58;28.10;99.90
29817;DHT22;16805;52.956;5.906;2022-08-19T11:04:24;28.10;99.90
29817;DHT22;16805;52.956;5.906;2022-08-19T11:06:50;28.10;99.90
29817;DHT22;16805;52.956;5.906;2022-08-19T11:09:21;28.10;99.90
29817;DHT22;16805;52.956;5.906;2022-08-19T11:11:49;28.10;99.90
29817;DHT22;16805;52.956;5.906;2022-08-19T11:14:17;28.00;99.90
29817;DHT22;16805;52.956;5.906;2022-08-19T11:16:48;28.00;99.90
29817;DHT22;16805;52.956;5.906;2022-08-19T11:19:14;27.90;99.90
29817;DHT22;16805;52.956;5.906;2022-08-19T11:21:44;27.80;99.90
29817;DHT22;16805;52.956;5.906;2022-08-19T11:24:21;27.70;99.90
29817;DHT22;16805;52.956;5.906;2022-08-19T11:26:49;27.70;99.90
29817;DHT22;16805;52.956;5.906;2022-08-19T11:29:16;27.70;99.90
29817;DHT22;16805;52.956;5.906;2022-08-19T11:31:45;27.70;99.90
29817;DHT22;16805;52.956;5.906;2022-08-19T11:34:18;27.70;99.90
29817;DHT22;16805;52.956;5.906;2022-08-19T11:36:46;27.70;99.90
29817;DHT22;16805;52.956;5.906;2022-08-19T11:39:15;27.70;99.90
29817;DHT22;16805;52.956;5.906;2022-08-19T11:41:41;27.70;99.90
29817;DHT22;16805;52.956;5.906;2022-08-19T11:44:07;27.70;99.90
29817;DHT22;16805;52.956;5.906;2022-08-19T11:46:36;27.70;99.90
29817;DHT22;16805;52.956;5.906;2022-08-19T11:49:03;27.70;99.90
29817;DHT22;16805;52.956;5.906;2022-08-19T11:51:30;27.80;99.90
29817;DHT22;16805;52.956;5.906;2022-08-19T11:53:58;27.70;99.90
29817;DHT22;16805;52.956;5.906;2022-08-19T11:56:24;27.70;99.90
29817;DHT22;16805;52.956;5.906;2022-08-19T11:58:51;27.80;99.90
29817;DHT22;16805;52.956;5.906;2022-08-19T12:01:20;27.80;99.90
29817;DHT22;16805;52.956;5.906;2022-08-19T12:03:48;27.80;99.90
29817;DHT22;16805;52.956;5.906;2022-08-19T12:06:18;27.80;99.90
29817;DHT22;16805;52.956;5.906;2022-08-19T12:08:45;27.80;99.90
29817;DHT22;16805;52.956;5.906;2022-08-19T12:11:13;27.80;99.90
29817;DHT22;16805;52.956;5.906;2022-08-19T12:13:40;27.80;99.90
29817;DHT22;16805;52.956;5.906;2022-08-19T12:16:27;27.80;99.90
29817;DHT22;16805;52.956;5.906;2022-08-19T12:18:54;27.80;99.90
29817;DHT22;16805;52.956;5.906;2022-08-19T12:21:23;27.70;99.90
29817;DHT22;16805;52.956;5.906;2022-08-19T12:23:50;27.70;99.90
29817;DHT22;16805;52.956;5.906;2022-08-19T12:26:17;27.70;99.90
29817;DHT22;16805;52.956;5.906;2022-08-19T12:28:44;27.60;99.90
29817;DHT22;16805;52.956;5.906;2022-08-19T12:31:10;27.50;99.90
29817;DHT22;16805;52.956;5.906;2022-08-19T12:33:38;27.40;99.90
29817;DHT22;16805;52.956;5.906;2022-08-19T12:36:06;27.40;99.90
29817;DHT22;16805;52.956;5.906;2022-08-19T12:38:51;27.30;99.90
29817;DHT22;16805;52.956;5.906;2022-08-19T12:41:17;27.30;99.90
29817;DHT22;16805;52.956;5.906;2022-08-19T12:43:44;27.30;99.90
29817;DHT22;16805;52.956;5.906;2022-08-19T12:46:11;27.30;99.90
29817;DHT22;16805;52.956;5.906;2022-08-19T12:48:38;27.30;99.90
29817;DHT22;16805;52.956;5.906;2022-08-19T12:51:09;27.40;99.90
29817;DHT22;16805;52.956;5.906;2022-08-19T12:53:35;27.30;99.90
29817;DHT22;16805;52.956;5.906;2022-08-19T12:56:02;27.30;99.90
29817;DHT22;16805;52.956;5.906;2022-08-19T12:58:29;27.20;99.90
29817;DHT22;16805;52.956;5.906;2022-08-19T13:00:54;27.20;99.90
29817;DHT22;16805;52.956;5.906;2022-08-19T13:03:20;27.10;99.90
29817;DHT22;16805;52.956;5.906;2022-08-19T13:05:50;27.00;99.90
29817;DHT22;16805;52.956;5.906;2022-08-19T13:08:16;26.90;99.90
29817;DHT22;16805;52.956;5.906;2022-08-19T13:10:42;26.80;99.90
29817;DHT22;16805;52.956;5.906;2022-08-19T13:13:09;26.80;99.90
29817;DHT22;16805;52.956;5.906;2022-08-19T13:15:37;26.70;99.90
29817;DHT22;16805;52.956;5.906;2022-08-19T13:18:03;26.70;99.90
29817;DHT22;16805;52.956;5.906;2022-08-19T13:20:47;26.60;99.90
29817;DHT22;16805;52.956;5.906;2022-08-19T13:23:13;26.50;99.90
29817;DHT22;16805;52.956;5.906;2022-08-19T13:25:38;26.40;99.90
29817;DHT22;16805;52.956;5.906;2022-08-19T13:28:04;26.30;99.90
29817;DHT22;16805;52.956;5.906;2022-08-19T13:30:31;26.30;99.90
29817;DHT22;16805;52.956;5.906;2022-08-19T13:33:16;26.40;99.90
29817;DHT22;16805;52.956;5.906;2022-08-19T13:35:51;26.40;99.90
29817;DHT22;16805;52.956;5.906;2022-08-19T13:38:22;26.40;99.90
29817;DHT22;16805;52.956;5.906;2022-08-19T13:40:49;26.40;99.90
29817;DHT22;16805;52.956;5.906;2022-08-19T13:43:17;26.40;99.90
29817;DHT22;16805;52.956;5.906;2022-08-19T13:45:43;26.40;99.90
29817;DHT22;16805;52.956;5.906;2022-08-19T13:48:09;26.40;99.90
29817;DHT22;16805;52.956;5.906;2022-08-19T13:50:41;26.40;99.90
29817;DHT22;16805;52.956;5.906;2022-08-19T13:53:09;26.40;99.90
29817;DHT22;16805;52.956;5.906;2022-08-19T13:55:39;26.40;99.90
29817;DHT22;16805;52.956;5.906;2022-08-19T13:58:05;26.50;99.90
29817;DHT22;16805;52.956;5.906;2022-08-19T14:00:36;26.50;99.90
29817;DHT22;16805;52.956;5.906;2022-08-19T14:03:03;26.50;99.90
29817;DHT22;16805;52.956;5.906;2022-08-19T14:05:29;26.50;99.90
29817;DHT22;16805;52.956;5.906;2022-08-19T14:07:55;26.40;99.90
29817;DHT22;16805;52.956;5.906;2022-08-19T14:10:22;26.40;99.90
29817;DHT22;16805;52.956;5.906;2022-08-19T14:12:49;26.40;99.90
29817;DHT22;16805;52.956;5.906;2022-08-19T14:15:15;26.40;99.90
29817;DHT22;16805;52.956;5.906;2022-08-19T14:17:43;26.40;99.90
29817;DHT22;16805;52.956;5.906;2022-08-19T14:20:10;26.30;99.90
29817;DHT22;16805;52.956;5.906;2022-08-19T14:22:37;26.30;99.90
29817;DHT22;16805;52.956;5.906;2022-08-19T14:25:04;26.20;99.90
29817;DHT22;16805;52.956;5.906;2022-08-19T14:27:37;26.20;99.90
29817;DHT22;16805;52.956;5.906;2022-08-19T14:30:04;26.10;99.90
29817;DHT22;16805;52.956;5.906;2022-08-19T14:32:32;26.00;99.90
29817;DHT22;16805;52.956;5.906;2022-08-19T14:35:16;25.90;99.90
29817;DHT22;16805;52.956;5.906;2022-08-19T14:37:44;25.90;99.90
29817;DHT22;16805;52.956;5.906;2022-08-19T14:40:10;25.90;99.90
29817;DHT22;16805;52.956;5.906;2022-08-19T14:42:36;25.90;99.90
29817;DHT22;16805;52.956;5.906;2022-08-19T14:45:03;25.90;99.90
29817;DHT22;16805;52.956;5.906;2022-08-19T14:47:30;25.90;99.90
29817;DHT22;16805;52.956;5.906;2022-08-19T14:49:56;25.90;99.90
29817;DHT22;16805;52.956;5.906;2022-08-19T14:52:22;25.90;99.90
29817;DHT22;16805;52.956;5.906;2022-08-19T14:54:48;25.90;99.90
29817;DHT22;16805;52.956;5.906;2022-08-19T14:57:14;25.90;99.90
29817;DHT22;16805;52.956;5.906;2022-08-19T14:59:41;25.90;99.90
29817;DHT22;16805;52.956;5.906;2022-08-19T15:02:07;25.90;99.90
29817;DHT22;16805;52.956;5.906;2022-08-19T15:04:33;25.90;99.90
29817;DHT22;16805;52.956;5.906;2022-08-19T15:06:58;25.80;99.90
29817;DHT22;16805;52.956;5.906;2022-08-19T15:09:24;25.80;99.90
29817;DHT22;16805;52.956;5.906;2022-08-19T15:11:50;25.70;99.90
29817;DHT22;16805;52.956;5.906;2022-08-19T15:14:16;25.70;99.90
29817;DHT22;16805;52.956;5.906;2022-08-19T15:16:42;25.60;99.90
29817;DHT22;16805;52.956;5.906;2022-08-19T15:19:08;25.60;99.90
29817;DHT22;16805;52.956;5.906;2022-08-19T15:21:34;25.60;99.90
29817;DHT22;16805;52.956;5.906;2022-08-19T15:24:01;25.60;99.90
29817;DHT22;16805;52.956;5.906;2022-08-19T15:26:28;25.50;99.90
29817;DHT22;16805;52.956;5.906;2022-08-19T15:28:57;25.50;99.90
29817;DHT22;16805;52.956;5.906;2022-08-19T15:31:25;25.50;99.90
29817;DHT22;16805;52.956;5.906;2022-08-19T15:33:53;25.50;99.90
29817;DHT22;16805;52.956;5.906;2022-08-19T15:36:21;25.50;99.90
29817;DHT22;16805;52.956;5.906;2022-08-19T15:38:48;25.40;99.90
29817;DHT22;16805;52.956;5.906;2022-08-19T15:41:21;25.50;99.90
29817;DHT22;16805;52.956;5.906;2022-08-19T15:44:17;25.50;99.90
29817;DHT22;16805;52.956;5.906;2022-08-19T15:46:45;25.50;99.90